createdAt,value
2018-03-02T00:00:32.287Z,99885.14
2018-03-02T00:03:00.399Z,99888.39
2018-03-02T00:05:28.549Z,99875.39
2018-03-02T00:07:56.643Z,99872.23
2018-03-02T00:10:24.744Z,99870.84
2018-03-02T00:12:52.858Z,99883.49
2018-03-02T00:15:20.971Z,99876.62
2018-03-02T00:17:49.084Z,99877.19
2018-03-02T00:20:17.218Z,99877.23
2018-03-02T00:22:45.656Z,99872.70
2018-03-02T00:25:13.773Z,99868.84
2018-03-02T00:27:41.894Z,99864.52
2018-03-02T00:30:10.215Z,99854.52
2018-03-02T00:32:38.352Z,99855.67
2018-03-02T00:35:06.466Z,99847.62
2018-03-02T00:37:34.596Z,99847.95
2018-03-02T00:40:02.728Z,99844.64
2018-03-02T00:42:30.858Z,99845.61
2018-03-02T00:44:58.976Z,99834.49
2018-03-02T00:47:27.079Z,99834.45
2018-03-02T00:49:55.211Z,99828.17
2018-03-02T00:52:23.308Z,99823.43
2018-03-02T00:54:51.422Z,99830.33
2018-03-02T00:57:22.646Z,99818.78
2018-03-02T00:59:50.791Z,99831.86
2018-03-02T01:02:18.914Z,99821.05
2018-03-02T01:04:47.023Z,99813.11
2018-03-02T01:07:15.182Z,99814.75
2018-03-02T01:09:43.298Z,99809.83
2018-03-02T01:12:11.409Z,99812.02
2018-03-02T01:14:39.522Z,99802.73
2018-03-02T01:17:07.631Z,99803.69
2018-03-02T01:19:35.739Z,99801.25
2018-03-02T01:22:03.859Z,99798.08
2018-03-02T01:24:31.981Z,99801.09
2018-03-02T01:27:00.094Z,99799.27
2018-03-02T01:29:28.224Z,99784.61
2018-03-02T01:31:56.335Z,99783.48
2018-03-02T01:34:24.461Z,99786.34
2018-03-02T01:36:52.604Z,99785.40
2018-03-02T01:39:20.699Z,99791.19
2018-03-02T01:41:48.819Z,99790.14
2018-03-02T01:44:16.953Z,99795.73
2018-03-02T01:46:45.060Z,99777.80
2018-03-02T01:49:13.169Z,99774.12
2018-03-02T01:51:47.936Z,99778.67
2018-03-02T01:54:16.037Z,99772.44
2018-03-02T01:56:44.143Z,99763.08
2018-03-02T01:59:12.260Z,99763.17
2018-03-02T02:01:40.366Z,99761.75
2018-03-02T02:04:08.497Z,99762.29
2018-03-02T02:06:36.599Z,99755.78
2018-03-02T02:09:05.603Z,99755.01
2018-03-02T02:11:33.729Z,99752.38
2018-03-02T02:14:01.837Z,99756.66
2018-03-02T02:16:29.964Z,99757.37
2018-03-02T02:18:58.059Z,99750.78
2018-03-02T02:21:26.163Z,99765.27
2018-03-02T02:23:54.296Z,99754.03
2018-03-02T02:26:22.398Z,99762.91
2018-03-02T02:28:50.516Z,99769.11
2018-03-02T02:31:18.640Z,99762.69
2018-03-02T02:33:46.735Z,99753.44
2018-03-02T02:36:14.843Z,99748.00
2018-03-02T02:38:42.988Z,99759.05
2018-03-02T02:41:11.183Z,99750.13
2018-03-02T02:43:39.314Z,99742.39
2018-03-02T02:46:07.431Z,99747.09
2018-03-02T02:48:35.531Z,99736.97
2018-03-02T02:51:03.634Z,99743.92
2018-03-02T02:53:31.769Z,99741.87
2018-03-02T02:55:59.875Z,99727.44
2018-03-02T02:58:27.982Z,99734.36
2018-03-02T03:00:56.122Z,99730.02
2018-03-02T03:03:24.223Z,99735.66
2018-03-02T03:05:52.332Z,99741.52
2018-03-02T03:08:20.443Z,99731.11
2018-03-02T03:10:48.554Z,99743.97
2018-03-02T03:13:16.673Z,99736.69
2018-03-02T03:15:44.793Z,99727.66
2018-03-02T03:18:12.933Z,99723.22
2018-03-02T03:20:41.026Z,99720.65
2018-03-02T03:23:09.143Z,99719.44
2018-03-02T03:25:37.278Z,99718.19
2018-03-02T03:28:05.385Z,99707.09
2018-03-02T03:30:33.503Z,99703.31
2018-03-02T03:33:01.625Z,99703.39
2018-03-02T03:35:29.831Z,99691.27
2018-03-02T03:37:57.936Z,99684.88
2018-03-02T03:40:26.060Z,99683.69
2018-03-02T03:42:54.214Z,99673.19
2018-03-02T03:45:22.342Z,99667.87
2018-03-02T03:47:50.464Z,99666.19
2018-03-02T03:50:18.605Z,99666.40
2018-03-02T03:52:46.750Z,99672.45
2018-03-02T03:55:14.858Z,99682.69
2018-03-02T03:57:42.990Z,99677.05
2018-03-02T04:00:11.121Z,99670.86
2018-03-02T04:02:39.224Z,99658.86
2018-03-02T04:05:08.237Z,99656.55
2018-03-02T04:07:36.438Z,99640.02
2018-03-02T04:10:04.501Z,99643.00
2018-03-02T04:12:32.615Z,99643.73
2018-03-02T04:15:00.745Z,99642.36
2018-03-02T04:17:28.864Z,99641.86
2018-03-02T04:19:57.000Z,99636.25
2018-03-02T04:22:25.122Z,99627.60
2018-03-02T04:24:53.244Z,99631.30
2018-03-02T04:27:21.363Z,99624.92
2018-03-02T04:29:49.501Z,99622.88
2018-03-02T04:32:17.625Z,99629.84
2018-03-02T04:34:45.764Z,99631.12
2018-03-02T04:37:13.900Z,99641.84
2018-03-02T04:39:41.995Z,99629.97
2018-03-02T04:42:10.107Z,99622.55
2018-03-02T04:44:38.238Z,99628.27
2018-03-02T04:47:06.339Z,99613.33
2018-03-02T04:49:34.462Z,99609.67
2018-03-02T04:52:02.577Z,99621.01
2018-03-02T04:54:30.719Z,99620.67
2018-03-02T04:56:58.842Z,99622.45
2018-03-02T04:59:26.946Z,99610.34
2018-03-02T05:01:55.076Z,99604.48
2018-03-02T05:04:23.212Z,99615.94
2018-03-02T05:06:51.336Z,99605.64
2018-03-02T05:09:19.541Z,99614.22
2018-03-02T05:11:47.671Z,99602.58
2018-03-02T05:14:15.789Z,99594.69
2018-03-02T05:16:43.902Z,99594.27
2018-03-02T05:19:12.060Z,99588.32
2018-03-02T05:21:40.157Z,99589.11
2018-03-02T05:24:08.263Z,99588.81
2018-03-02T05:26:36.387Z,99605.63
2018-03-02T05:29:04.499Z,99593.73
2018-03-02T05:31:32.636Z,99603.22
2018-03-02T05:34:00.749Z,99606.79
2018-03-02T05:36:28.880Z,99605.36
2018-03-02T05:38:56.993Z,99611.74
2018-03-02T05:41:25.125Z,99605.53
2018-03-02T05:43:53.249Z,99602.66
2018-03-02T05:46:21.355Z,99596.38
2018-03-02T05:48:49.494Z,99594.11
2018-03-02T05:51:17.618Z,99596.98
2018-03-02T05:53:45.749Z,99593.74
2018-03-02T05:56:13.875Z,99582.70
2018-03-02T05:58:41.992Z,99596.61
2018-03-02T06:01:10.120Z,99591.48
2018-03-02T06:03:38.244Z,99588.73
2018-03-02T06:06:06.372Z,99588.94
2018-03-02T06:08:34.501Z,99586.91
2018-03-02T06:11:02.625Z,99589.56
2018-03-02T06:13:30.741Z,99584.49
2018-03-02T06:15:58.885Z,99582.53
2018-03-02T06:18:27.040Z,99571.23
2018-03-02T06:20:55.157Z,99567.33
2018-03-02T06:23:23.312Z,99569.58
2018-03-02T06:25:51.437Z,99568.09
2018-03-02T06:28:19.585Z,99553.34
2018-03-02T06:30:47.719Z,99552.89
2018-03-02T06:33:15.839Z,99549.81
2018-03-02T06:35:43.950Z,99558.16
2018-03-02T06:38:12.081Z,99542.05
2018-03-02T06:40:40.603Z,99541.04
2018-03-02T06:43:08.731Z,99540.22
2018-03-02T06:45:36.846Z,99554.34
2018-03-02T06:48:04.959Z,99554.13
2018-03-02T06:50:33.100Z,99551.59
2018-03-02T06:53:01.207Z,99559.45
2018-03-02T06:55:29.357Z,99555.75
2018-03-02T06:57:57.468Z,99557.39
2018-03-02T07:00:25.594Z,99555.39
2018-03-02T07:02:53.746Z,99555.61
2018-03-02T07:05:21.867Z,99561.20
2018-03-02T07:07:49.971Z,99561.11
2018-03-02T07:10:18.107Z,99560.39
2018-03-02T07:12:46.215Z,99557.49
2018-03-02T07:15:14.341Z,99564.40
2018-03-02T07:17:42.455Z,99564.34
2018-03-02T07:20:10.597Z,99559.36
2018-03-02T07:22:38.710Z,99549.70
2018-03-02T07:25:06.843Z,99542.28
2018-03-02T07:27:34.979Z,99538.95
2018-03-02T07:30:03.117Z,99543.13
2018-03-02T07:32:31.235Z,99544.02
2018-03-02T07:34:59.353Z,99549.89
2018-03-02T07:37:27.508Z,99544.70
2018-03-02T07:39:55.629Z,99548.63
2018-03-02T07:42:23.749Z,99553.13
2018-03-02T07:44:51.867Z,99552.07
2018-03-02T07:47:19.967Z,99543.80
2018-03-02T07:49:48.114Z,99537.39
2018-03-02T07:52:16.211Z,99536.36
2018-03-02T07:54:44.341Z,99540.52
2018-03-02T07:57:12.453Z,99529.25
2018-03-02T07:59:40.558Z,99535.22
2018-03-02T08:02:08.685Z,99538.80
2018-03-02T08:04:36.806Z,99534.69
2018-03-02T08:07:04.938Z,99515.08
2018-03-02T08:09:33.043Z,99517.90
2018-03-02T08:12:01.177Z,99513.47
2018-03-02T08:14:29.289Z,99511.23
2018-03-02T08:16:57.417Z,99519.90
2018-03-02T08:19:25.561Z,99504.05
2018-03-02T08:21:53.673Z,99504.19
2018-03-02T08:24:21.778Z,99505.73
2018-03-02T08:26:49.903Z,99497.84
2018-03-02T08:29:18.033Z,99497.61
2018-03-02T08:31:46.164Z,99491.68
2018-03-02T08:34:14.278Z,99489.55
2018-03-02T08:36:42.404Z,99487.24
2018-03-02T08:39:10.515Z,99487.46
2018-03-02T08:41:38.650Z,99488.23
2018-03-02T08:44:06.757Z,99480.67
2018-03-02T08:46:34.865Z,99493.21
2018-03-02T08:49:03.038Z,99490.91
2018-03-02T08:51:31.175Z,99480.77
2018-03-02T08:53:59.284Z,99476.91
2018-03-02T08:56:27.409Z,99481.38
2018-03-02T08:58:55.529Z,99475.15
2018-03-02T09:01:23.649Z,99478.05
2018-03-02T09:03:51.764Z,99488.70
2018-03-02T09:06:19.871Z,99485.38
2018-03-02T09:08:47.998Z,99486.69
2018-03-02T09:11:16.146Z,99475.27
2018-03-02T09:13:44.239Z,99485.06
2018-03-02T09:16:12.381Z,99489.86
2018-03-02T09:18:40.493Z,99483.73
2018-03-02T09:21:08.618Z,99486.69
2018-03-02T09:23:36.752Z,99492.66
2018-03-02T09:26:05.129Z,99490.56
2018-03-02T09:28:33.259Z,99493.34
2018-03-02T09:31:01.386Z,99482.74
2018-03-02T09:33:29.501Z,99473.27
2018-03-02T09:35:57.620Z,99478.94
2018-03-02T09:38:25.748Z,99473.52
2018-03-02T09:40:54.210Z,99466.21
2018-03-02T09:43:22.316Z,99472.42
2018-03-02T09:45:50.436Z,99468.85
2018-03-02T09:48:18.585Z,99469.68
2018-03-02T09:50:46.689Z,99473.52
2018-03-02T09:53:14.843Z,99485.22
2018-03-02T09:55:42.963Z,99491.97
2018-03-02T09:58:11.391Z,99489.44
2018-03-02T10:00:45.833Z,99479.51
2018-03-02T10:03:13.955Z,99498.84
2018-03-02T10:05:42.054Z,99487.38
2018-03-02T10:08:10.208Z,99492.42
2018-03-02T10:10:38.328Z,99492.87
2018-03-02T10:13:06.436Z,99502.88
2018-03-02T10:15:34.560Z,99502.02
2018-03-02T10:18:02.668Z,99494.64
2018-03-02T10:20:30.773Z,99490.45
2018-03-02T10:22:59.787Z,99497.89
2018-03-02T10:25:27.899Z,99503.19
2018-03-02T10:27:56.033Z,99497.70
2018-03-02T10:30:24.155Z,99497.76
2018-03-02T10:32:52.277Z,99493.72
2018-03-02T10:35:20.431Z,99498.89
2018-03-02T10:37:48.550Z,99490.51
2018-03-02T10:40:16.677Z,99486.11
2018-03-02T10:42:44.820Z,99487.19
2018-03-02T10:45:12.941Z,99485.39
2018-03-02T10:47:41.069Z,99501.80
2018-03-02T10:50:09.187Z,99496.83
2018-03-02T10:52:37.316Z,99498.48
2018-03-02T10:55:05.432Z,99493.27
2018-03-02T10:57:33.629Z,99506.27
2018-03-02T11:00:01.736Z,99493.44
2018-03-02T11:02:29.845Z,99493.81
2018-03-02T11:05:03.536Z,99488.30
2018-03-02T11:07:31.635Z,99489.91
2018-03-02T11:09:59.738Z,99492.53
2018-03-02T11:12:31.092Z,99489.76
2018-03-02T11:14:59.219Z,99492.77
2018-03-02T11:17:27.345Z,99492.28
2018-03-02T11:19:55.448Z,99486.64
2018-03-02T11:22:23.555Z,99493.17
2018-03-02T11:24:51.683Z,99478.95
2018-03-02T11:27:19.794Z,99471.77
2018-03-02T11:29:47.890Z,99486.05
2018-03-02T11:32:16.055Z,99472.53
2018-03-02T11:34:44.205Z,99472.87
2018-03-02T11:37:12.309Z,99468.34
2018-03-02T11:39:40.469Z,99474.45
2018-03-02T11:42:08.571Z,99464.33
2018-03-02T11:44:36.672Z,99454.31
2018-03-02T11:47:04.846Z,99463.13
2018-03-02T11:49:32.901Z,99467.13
2018-03-02T11:52:01.020Z,99467.80
2018-03-02T11:54:29.188Z,99462.81
2018-03-02T11:56:57.286Z,99465.14
2018-03-02T11:59:27.376Z,99448.81
2018-03-02T12:01:55.498Z,99462.44
2018-03-02T12:04:23.604Z,99451.61
2018-03-02T12:06:51.734Z,99441.00
2018-03-02T12:09:19.861Z,99449.84
2018-03-02T12:11:47.969Z,99439.34
2018-03-02T12:14:16.088Z,99445.73
2018-03-02T12:16:44.288Z,99426.61
2018-03-02T12:19:12.419Z,99431.41
2018-03-02T12:21:40.555Z,99429.19
2018-03-02T12:24:08.660Z,99425.14
2018-03-02T12:26:36.801Z,99432.99
2018-03-02T12:29:04.920Z,99428.00
2018-03-02T12:31:33.019Z,99428.25
2018-03-02T12:34:01.136Z,99415.16
2018-03-02T12:36:32.758Z,99419.70
2018-03-02T12:39:00.891Z,99425.47
2018-03-02T12:41:28.988Z,99425.59
2018-03-02T12:43:57.124Z,99408.44
2018-03-02T12:46:26.160Z,99405.27
2018-03-02T12:48:54.264Z,99410.09
2018-03-02T12:51:22.386Z,99416.64
2018-03-02T12:53:50.629Z,99417.98
2018-03-02T12:56:19.455Z,99404.55
2018-03-02T12:58:47.590Z,99407.66
2018-03-02T13:01:15.708Z,99420.70
2018-03-02T13:03:43.893Z,99416.86
2018-03-02T13:06:12.000Z,99410.20
2018-03-02T13:08:40.136Z,99415.31
2018-03-02T13:11:08.265Z,99403.11
2018-03-02T13:13:36.379Z,99410.84
2018-03-02T13:16:04.501Z,99414.97
2018-03-02T13:18:42.480Z,99421.23
2018-03-02T13:21:10.605Z,99400.27
2018-03-02T13:23:38.719Z,99394.62
2018-03-02T13:26:06.858Z,99402.08
2018-03-02T13:28:46.784Z,99400.06
2018-03-02T13:31:14.909Z,99406.13
2018-03-02T13:33:54.913Z,99409.23
2018-03-02T13:36:23.035Z,99402.23
2018-03-02T13:38:51.154Z,99400.86
2018-03-02T13:41:31.157Z,99394.82
2018-03-02T13:44:02.505Z,99408.97
2018-03-02T13:46:30.646Z,99389.89
2018-03-02T13:49:10.533Z,99398.48
2018-03-02T13:51:38.661Z,99390.75
2018-03-02T13:54:06.787Z,99390.69
2018-03-02T13:56:46.724Z,99394.77
2018-03-02T13:59:14.849Z,99395.39
2018-03-02T14:01:42.968Z,99396.89
2018-03-02T14:04:23.103Z,99373.52
2018-03-02T14:06:51.222Z,99383.48
2018-03-02T14:09:19.354Z,99383.20
2018-03-02T14:11:47.525Z,99379.54
2018-03-02T14:14:15.647Z,99372.22
2018-03-02T14:16:47.396Z,99365.44
2018-03-02T14:19:15.534Z,99360.30
2018-03-02T14:21:43.667Z,99365.36
2018-03-02T14:24:11.786Z,99353.45
2018-03-02T14:26:39.901Z,99346.19
2018-03-02T14:29:08.149Z,99343.69
2018-03-02T14:31:37.127Z,99353.87
2018-03-02T14:34:05.308Z,99345.59
2018-03-02T14:36:33.372Z,99345.75
2018-03-02T14:39:01.500Z,99347.78
2018-03-02T14:41:29.603Z,99348.82
2018-03-02T14:43:57.722Z,99339.75
2018-03-02T14:46:25.865Z,99348.30
2018-03-02T14:48:53.994Z,99341.98
2018-03-02T14:51:22.117Z,99349.44
2018-03-02T14:53:50.254Z,99343.13
2018-03-02T14:56:18.374Z,99343.69
2018-03-02T14:58:46.496Z,99347.13
2018-03-02T15:01:14.615Z,99343.30
2018-03-02T15:03:42.710Z,99343.79
2018-03-02T15:06:14.557Z,99340.55
2018-03-02T15:08:42.700Z,99341.56
2018-03-02T15:11:10.946Z,99349.03
2018-03-02T15:13:39.083Z,99337.85
2018-03-02T15:16:07.213Z,99343.91
2018-03-02T15:18:35.319Z,99339.72
2018-03-02T15:21:03.477Z,99349.91
2018-03-02T15:23:31.875Z,99345.48
2018-03-02T15:26:00.009Z,99343.95
2018-03-02T15:28:28.149Z,99342.57
2018-03-02T15:30:56.283Z,99340.98
2018-03-02T15:33:24.387Z,99344.38
2018-03-02T15:35:52.562Z,99345.30
2018-03-02T15:38:20.674Z,99353.53
2018-03-02T15:40:48.863Z,99358.52
2018-03-02T15:43:17.009Z,99353.56
2018-03-02T15:45:45.132Z,99354.82
2018-03-02T15:48:13.259Z,99362.38
2018-03-02T15:50:41.405Z,99363.94
2018-03-02T15:53:09.531Z,99372.56
2018-03-02T15:55:37.623Z,99374.02
2018-03-02T15:58:05.744Z,99362.52
2018-03-02T16:00:33.852Z,99370.72
2018-03-02T16:03:01.983Z,99373.02
2018-03-02T16:05:30.108Z,99365.92
2018-03-02T16:07:58.226Z,99388.03
2018-03-02T16:10:26.336Z,99390.22
2018-03-02T16:12:54.471Z,99384.91
2018-03-02T16:15:22.641Z,99387.43
2018-03-02T16:17:50.772Z,99375.52
2018-03-02T16:20:18.933Z,99375.31
2018-03-02T16:22:47.040Z,99375.62
2018-03-02T16:25:15.152Z,99378.75
2018-03-02T16:27:43.272Z,99389.00
2018-03-02T16:30:11.433Z,99389.77
2018-03-02T16:32:39.574Z,99381.73
2018-03-02T16:35:07.673Z,99393.64
2018-03-02T16:37:36.379Z,99392.27
2018-03-02T16:40:04.558Z,99395.88
2018-03-02T16:42:32.681Z,99393.75
2018-03-02T16:45:00.814Z,99391.00
2018-03-02T16:47:28.973Z,99403.36
2018-03-02T16:49:57.103Z,99395.13
2018-03-02T16:52:25.235Z,99403.70
2018-03-02T16:54:53.366Z,99412.55
2018-03-02T16:57:21.560Z,99411.00
2018-03-02T16:59:49.655Z,99411.77
2018-03-02T17:02:17.896Z,99414.55
2018-03-02T17:04:46.023Z,99420.34
2018-03-02T17:07:14.177Z,99416.75
2018-03-02T17:09:42.279Z,99430.29
2018-03-02T17:12:10.425Z,99426.99
2018-03-02T17:14:38.565Z,99418.84
2018-03-02T17:17:09.705Z,99423.01
2018-03-02T17:19:37.828Z,99421.47
2018-03-02T17:22:06.030Z,99424.17
2018-03-02T17:24:34.151Z,99430.24
2018-03-02T17:27:02.393Z,99446.09
2018-03-02T17:29:30.530Z,99438.19
2018-03-02T17:31:58.610Z,99445.73
2018-03-02T17:34:26.757Z,99443.77
2018-03-02T17:36:54.860Z,99445.20
2018-03-02T17:39:22.982Z,99451.13
2018-03-02T17:41:51.116Z,99443.78
2018-03-02T17:44:19.207Z,99462.55
2018-03-02T17:46:47.323Z,99471.11
2018-03-02T17:49:15.428Z,99464.76
2018-03-02T17:51:43.553Z,99468.09
2018-03-02T17:54:11.684Z,99465.98
2018-03-02T17:56:39.841Z,99472.10
2018-03-02T17:59:07.962Z,99468.84
2018-03-02T18:01:36.078Z,99470.55
2018-03-02T18:04:04.205Z,99466.02
2018-03-02T18:06:32.330Z,99473.03
2018-03-02T18:09:00.449Z,99466.66
2018-03-02T18:11:28.584Z,99472.66
2018-03-02T18:13:56.705Z,99474.50
2018-03-02T18:16:24.817Z,99476.33
2018-03-02T18:18:52.912Z,99470.62
2018-03-02T18:21:21.047Z,99481.89
2018-03-02T18:23:49.177Z,99486.70
2018-03-02T18:26:17.434Z,99485.78
2018-03-02T18:28:45.536Z,99488.65
2018-03-02T18:31:13.653Z,99482.50
2018-03-02T18:33:41.797Z,99486.97
2018-03-02T18:36:09.925Z,99488.43
2018-03-02T18:38:38.030Z,99484.50
2018-03-02T18:41:06.205Z,99489.62
2018-03-02T18:43:34.322Z,99487.53
2018-03-02T18:46:02.450Z,99486.37
2018-03-02T18:48:30.573Z,99475.68
2018-03-02T18:50:58.682Z,99476.59
2018-03-02T18:53:26.792Z,99473.84
2018-03-02T18:55:54.896Z,99477.52
2018-03-02T18:58:23.013Z,99475.91
2018-03-02T19:00:51.159Z,99481.81
2018-03-02T19:03:19.266Z,99478.74
2018-03-02T19:05:47.383Z,99478.92
2018-03-02T19:08:15.515Z,99482.45
2018-03-02T19:10:43.681Z,99482.95
2018-03-02T19:13:11.839Z,99488.76
2018-03-02T19:15:39.969Z,99473.33
2018-03-02T19:18:08.086Z,99478.41
2018-03-02T19:20:36.198Z,99482.59
2018-03-02T19:23:04.316Z,99490.86
2018-03-02T19:25:32.491Z,99486.10
2018-03-02T19:28:00.587Z,99489.17
2018-03-02T19:30:28.729Z,99489.64
2018-03-02T19:32:56.835Z,99491.34
2018-03-02T19:35:24.928Z,99490.64
2018-03-02T19:37:53.063Z,99497.87
2018-03-02T19:40:21.178Z,99503.23
2018-03-02T19:42:49.291Z,99510.73
2018-03-02T19:45:17.438Z,99505.06
2018-03-02T19:47:45.562Z,99506.55
2018-03-02T19:50:13.762Z,99504.81
2018-03-02T19:52:42.817Z,99511.20
2018-03-02T19:55:10.920Z,99507.83
2018-03-02T19:57:39.035Z,99509.89
2018-03-02T20:00:07.177Z,99511.91
2018-03-02T20:02:35.307Z,99516.89
2018-03-02T20:05:03.413Z,99528.16
2018-03-02T20:07:31.547Z,99530.49
2018-03-02T20:09:59.652Z,99528.36
2018-03-02T20:12:27.778Z,99526.20
2018-03-02T20:14:55.905Z,99528.27
2018-03-02T20:17:24.022Z,99530.20
2018-03-02T20:19:52.165Z,99532.62
2018-03-02T20:22:20.260Z,99525.33
2018-03-02T20:24:48.362Z,99532.62
2018-03-02T20:27:16.485Z,99532.92
2018-03-02T20:29:44.592Z,99533.34
2018-03-02T20:32:12.736Z,99528.59
2018-03-02T20:34:40.858Z,99535.41
2018-03-02T20:37:08.967Z,99535.50
2018-03-02T20:39:37.082Z,99542.31
2018-03-02T20:42:05.265Z,99536.02
2018-03-02T20:44:33.408Z,99531.84
2018-03-02T20:47:01.535Z,99526.05
2018-03-02T20:49:29.690Z,99532.67
2018-03-02T20:51:57.791Z,99524.81
2018-03-02T20:54:25.906Z,99526.91
2018-03-02T20:56:54.041Z,99528.92
2018-03-02T20:59:22.145Z,99532.43
2018-03-02T21:01:50.251Z,99531.04
2018-03-02T21:04:18.365Z,99539.74
2018-03-02T21:06:46.480Z,99540.62
2018-03-02T21:09:14.596Z,99540.47
2018-03-02T21:11:42.729Z,99538.09
2018-03-02T21:14:10.846Z,99537.58
2018-03-02T21:16:38.967Z,99536.92
2018-03-02T21:19:07.084Z,99542.95
2018-03-02T21:21:35.203Z,99534.88
2018-03-02T21:24:03.326Z,99532.70
2018-03-02T21:26:31.782Z,99534.46
2018-03-02T21:28:59.902Z,99536.11
2018-03-02T21:31:28.030Z,99538.79
2018-03-02T21:33:56.127Z,99537.06
2018-03-02T21:36:24.231Z,99539.72
2018-03-02T21:38:52.344Z,99538.12
2018-03-02T21:41:20.491Z,99539.42
2018-03-02T21:43:48.769Z,99542.66
2018-03-02T21:46:17.056Z,99549.78
2018-03-02T21:48:45.175Z,99549.28
2018-03-02T21:51:13.299Z,99547.20
2018-03-02T21:53:41.414Z,99548.89
2018-03-02T21:56:09.533Z,99551.45
2018-03-02T21:58:37.636Z,99550.27
2018-03-02T22:01:05.748Z,99549.23
2018-03-02T22:03:33.844Z,99548.08
2018-03-02T22:06:01.959Z,99548.48
2018-03-02T22:08:30.151Z,99547.38
2018-03-02T22:10:58.243Z,99547.58
2018-03-02T22:13:26.373Z,99550.71
2018-03-02T22:15:54.493Z,99548.73
2018-03-02T22:18:26.226Z,99540.80
2018-03-02T22:20:54.727Z,99539.73
2018-03-02T22:23:22.853Z,99544.00
2018-03-02T22:25:50.997Z,99544.50
2018-03-02T22:28:19.130Z,99540.70
2018-03-02T22:30:47.230Z,99541.55
2018-03-02T22:33:15.341Z,99541.67
2018-03-02T22:35:43.573Z,99544.73
2018-03-02T22:38:11.703Z,99535.72
2018-03-02T22:40:39.831Z,99539.02
2018-03-02T22:43:07.961Z,99538.44
2018-03-02T22:45:36.083Z,99533.61
2018-03-02T22:48:04.220Z,99539.77
2018-03-02T22:50:32.339Z,99538.13
2018-03-02T22:53:00.486Z,99536.80
2018-03-02T22:55:28.605Z,99530.97
2018-03-02T22:57:56.752Z,99529.92
2018-03-02T23:00:24.874Z,99530.81
2018-03-02T23:02:52.995Z,99529.98
2018-03-02T23:05:21.129Z,99527.89
2018-03-02T23:07:49.274Z,99531.60
2018-03-02T23:10:17.388Z,99535.16
2018-03-02T23:12:45.503Z,99534.96
2018-03-02T23:15:13.610Z,99533.14
2018-03-02T23:17:41.737Z,99529.62
2018-03-02T23:20:09.854Z,99525.81
2018-03-02T23:22:37.967Z,99523.03
2018-03-02T23:25:06.124Z,99517.67
2018-03-02T23:27:34.273Z,99517.80
2018-03-02T23:30:02.344Z,99515.88
2018-03-02T23:32:30.487Z,99522.67
2018-03-02T23:34:58.617Z,99524.93
2018-03-02T23:37:26.742Z,99524.30
2018-03-02T23:39:54.858Z,99513.34
2018-03-02T23:42:22.979Z,99519.16
2018-03-02T23:44:51.117Z,99512.31
2018-03-02T23:47:19.229Z,99510.05
2018-03-02T23:49:47.338Z,99514.55
2018-03-02T23:52:15.455Z,99511.98
2018-03-02T23:54:43.561Z,99513.51
2018-03-02T23:57:11.726Z,99518.22
2018-03-02T23:59:39.836Z,99519.88
